sensor_id;sensor_type;location;lat;lon;timestamp;temperature;humidity
22418;DHT22;11376;50.932;4.442;2023-07-31T00:00:25;16.90;99.90
22418;DHT22;11376;50.932;4.442;2023-07-31T00:02:52;17.00;99.90
22418;DHT22;11376;50.932;4.442;2023-07-31T00:05:18;17.00;99.90
22418;DHT22;11376;50.932;4.442;2023-07-31T00:07:44;17.00;99.90
22418;DHT22;11376;50.932;4.442;2023-07-31T00:10:09;16.90;99.90
22418;DHT22;11376;50.932;4.442;2023-07-31T00:12:35;16.90;99.90
22418;DHT22;11376;50.932;4.442;2023-07-31T00:15:01;16.90;99.90
22418;DHT22;11376;50.932;4.442;2023-07-31T00:17:27;16.90;99.90
22418;DHT22;11376;50.932;4.442;2023-07-31T00:19:53;16.90;99.90
22418;DHT22;11376;50.932;4.442;2023-07-31T00:22:19;17.00;99.90
22418;DHT22;11376;50.932;4.442;2023-07-31T00:24:44;16.90;99.90
22418;DHT22;11376;50.932;4.442;2023-07-31T00:27:10;16.90;99.90
22418;DHT22;11376;50.932;4.442;2023-07-31T00:29:35;17.00;99.90
22418;DHT22;11376;50.932;4.442;2023-07-31T00:32:01;16.90;99.90
22418;DHT22;11376;50.932;4.442;2023-07-31T00:34:27;16.90;99.90
22418;DHT22;11376;50.932;4.442;2023-07-31T00:36:52;17.00;99.90
22418;DHT22;11376;50.932;4.442;2023-07-31T00:39:18;17.00;99.90
22418;DHT22;11376;50.932;4.442;2023-07-31T00:41:44;17.00;99.90
22418;DHT22;11376;50.932;4.442;2023-07-31T00:44:09;17.00;99.90
22418;DHT22;11376;50.932;4.442;2023-07-31T00:46:35;17.00;99.90
22418;DHT22;11376;50.932;4.442;2023-07-31T00:49:01;17.00;99.90
22418;DHT22;11376;50.932;4.442;2023-07-31T00:51:26;17.00;99.90
22418;DHT22;11376;50.932;4.442;2023-07-31T00:53:53;17.00;99.90
22418;DHT22;11376;50.932;4.442;2023-07-31T00:56:19;17.10;99.90
22418;DHT22;11376;50.932;4.442;2023-07-31T00:58:45;17.10;99.90
22418;DHT22;11376;50.932;4.442;2023-07-31T01:01:11;17.10;99.90
22418;DHT22;11376;50.932;4.442;2023-07-31T01:03:36;17.10;99.90
22418;DHT22;11376;50.932;4.442;2023-07-31T01:08:57;17.10;99.90
22418;DHT22;11376;50.932;4.442;2023-07-31T01:12:07;17.10;99.90
22418;DHT22;11376;50.932;4.442;2023-07-31T01:14:31;17.10;99.90
22418;DHT22;11376;50.932;4.442;2023-07-31T01:16:57;17.10;99.90
22418;DHT22;11376;50.932;4.442;2023-07-31T01:19:24;17.10;99.90
22418;DHT22;11376;50.932;4.442;2023-07-31T01:22:23;17.10;99.90
22418;DHT22;11376;50.932;4.442;2023-07-31T01:28:02;17.10;99.90
22418;DHT22;11376;50.932;4.442;2023-07-31T01:30:33;17.10;99.90
22418;DHT22;11376;50.932;4.442;2023-07-31T01:33:01;17.10;99.90
22418;DHT22;11376;50.932;4.442;2023-07-31T01:35:33;17.20;99.90
22418;DHT22;11376;50.932;4.442;2023-07-31T01:37:59;17.20;99.90
22418;DHT22;11376;50.932;4.442;2023-07-31T01:40:24;17.20;99.90
22418;DHT22;11376;50.932;4.442;2023-07-31T01:42:50;17.20;99.90
22418;DHT22;11376;50.932;4.442;2023-07-31T01:45:16;17.20;99.90
22418;DHT22;11376;50.932;4.442;2023-07-31T01:47:42;17.20;99.90
22418;DHT22;11376;50.932;4.442;2023-07-31T01:50:07;17.30;99.90
22418;DHT22;11376;50.932;4.442;2023-07-31T01:52:33;17.30;99.90
22418;DHT22;11376;50.932;4.442;2023-07-31T01:54:59;17.30;99.90
22418;DHT22;11376;50.932;4.442;2023-07-31T01:57:24;17.30;99.90
22418;DHT22;11376;50.932;4.442;2023-07-31T01:59:50;17.30;99.90
22418;DHT22;11376;50.932;4.442;2023-07-31T02:02:19;17.30;99.90
22418;DHT22;11376;50.932;4.442;2023-07-31T02:04:46;17.30;99.90
22418;DHT22;11376;50.932;4.442;2023-07-31T02:07:12;17.30;99.90
22418;DHT22;11376;50.932;4.442;2023-07-31T02:09:38;17.30;99.90
22418;DHT22;11376;50.932;4.442;2023-07-31T02:12:05;17.30;99.90
22418;DHT22;11376;50.932;4.442;2023-07-31T02:14:31;17.30;99.90
22418;DHT22;11376;50.932;4.442;2023-07-31T02:16:56;17.30;99.90
22418;DHT22;11376;50.932;4.442;2023-07-31T02:19:22;17.30;99.90
22418;DHT22;11376;50.932;4.442;2023-07-31T02:21:48;17.40;99.90
22418;DHT22;11376;50.932;4.442;2023-07-31T02:24:14;17.40;99.90
22418;DHT22;11376;50.932;4.442;2023-07-31T02:26:39;17.30;99.90
22418;DHT22;11376;50.932;4.442;2023-07-31T02:29:05;17.40;99.90
22418;DHT22;11376;50.932;4.442;2023-07-31T02:31:31;17.40;99.90
22418;DHT22;11376;50.932;4.442;2023-07-31T02:33:56;17.40;99.90
22418;DHT22;11376;50.932;4.442;2023-07-31T02:36:22;17.40;99.90
22418;DHT22;11376;50.932;4.442;2023-07-31T02:38:48;17.40;99.90
22418;DHT22;11376;50.932;4.442;2023-07-31T02:41:14;17.40;99.90
22418;DHT22;11376;50.932;4.442;2023-07-31T02:43:39;17.40;99.90
22418;DHT22;11376;50.932;4.442;2023-07-31T02:46:05;17.40;99.90
22418;DHT22;11376;50.932;4.442;2023-07-31T02:48:31;17.30;99.90
22418;DHT22;11376;50.932;4.442;2023-07-31T02:50:56;17.40;99.90
22418;DHT22;11376;50.932;4.442;2023-07-31T02:53:22;17.40;99.90
22418;DHT22;11376;50.932;4.442;2023-07-31T02:55:48;17.40;99.90
22418;DHT22;11376;50.932;4.442;2023-07-31T02:58:14;17.40;99.90
22418;DHT22;11376;50.932;4.442;2023-07-31T03:00:43;17.40;99.90
22418;DHT22;11376;50.932;4.442;2023-07-31T03:03:09;17.40;99.90
22418;DHT22;11376;50.932;4.442;2023-07-31T03:05:35;17.40;99.90
22418;DHT22;11376;50.932;4.442;2023-07-31T03:08:01;17.50;99.90
22418;DHT22;11376;50.932;4.442;2023-07-31T03:10:27;17.40;99.90
22418;DHT22;11376;50.932;4.442;2023-07-31T03:12:52;17.30;99.90
22418;DHT22;11376;50.932;4.442;2023-07-31T03:15:18;17.20;99.90
22418;DHT22;11376;50.932;4.442;2023-07-31T03:17:44;17.20;99.90
22418;DHT22;11376;50.932;4.442;2023-07-31T03:20:10;17.10;99.90
22418;DHT22;11376;50.932;4.442;2023-07-31T03:22:36;17.10;99.90
22418;DHT22;11376;50.932;4.442;2023-07-31T03:25:02;17.10;99.90
22418;DHT22;11376;50.932;4.442;2023-07-31T03:27:28;16.90;99.90
22418;DHT22;11376;50.932;4.442;2023-07-31T03:29:54;16.90;99.90
22418;DHT22;11376;50.932;4.442;2023-07-31T03:32:20;16.90;99.90
22418;DHT22;11376;50.932;4.442;2023-07-31T03:34:45;16.90;99.90
22418;DHT22;11376;50.932;4.442;2023-07-31T03:37:11;17.00;99.90
22418;DHT22;11376;50.932;4.442;2023-07-31T03:39:36;16.90;99.90
22418;DHT22;11376;50.932;4.442;2023-07-31T03:42:02;16.90;99.90
22418;DHT22;11376;50.932;4.442;2023-07-31T03:44:28;16.90;99.90
22418;DHT22;11376;50.932;4.442;2023-07-31T03:46:54;16.90;99.90
22418;DHT22;11376;50.932;4.442;2023-07-31T03:49:19;16.90;99.90
22418;DHT22;11376;50.932;4.442;2023-07-31T03:51:45;16.90;99.90
22418;DHT22;11376;50.932;4.442;2023-07-31T03:54:11;16.80;99.90
22418;DHT22;11376;50.932;4.442;2023-07-31T03:56:38;16.70;99.90
22418;DHT22;11376;50.932;4.442;2023-07-31T03:59:04;16.70;99.90
22418;DHT22;11376;50.932;4.442;2023-07-31T04:01:30;16.60;99.90
22418;DHT22;11376;50.932;4.442;2023-07-31T04:03:55;16.60;99.90
22418;DHT22;11376;50.932;4.442;2023-07-31T04:06:21;16.50;99.90
22418;DHT22;11376;50.932;4.442;2023-07-31T04:08:46;16.60;99.90
22418;DHT22;11376;50.932;4.442;2023-07-31T04:11:12;16.60;99.90
22418;DHT22;11376;50.932;4.442;2023-07-31T04:13:38;16.60;99.90
22418;DHT22;11376;50.932;4.442;2023-07-31T04:16:04;16.50;99.90
22418;DHT22;11376;50.932;4.442;2023-07-31T04:18:31;16.50;99.90
22418;DHT22;11376;50.932;4.442;2023-07-31T04:20:58;16.50;99.90
22418;DHT22;11376;50.932;4.442;2023-07-31T04:23:24;16.50;99.90
22418;DHT22;11376;50.932;4.442;2023-07-31T04:25:50;16.50;99.90
22418;DHT22;11376;50.932;4.442;2023-07-31T04:28:16;16.50;99.90
22418;DHT22;11376;50.932;4.442;2023-07-31T04:30:42;16.60;99.90
22418;DHT22;11376;50.932;4.442;2023-07-31T04:33:07;16.50;99.90
22418;DHT22;11376;50.932;4.442;2023-07-31T04:35:33;16.50;99.90
22418;DHT22;11376;50.932;4.442;2023-07-31T04:37:59;16.50;99.90
22418;DHT22;11376;50.932;4.442;2023-07-31T04:40:24;16.60;99.90
22418;DHT22;11376;50.932;4.442;2023-07-31T04:42:50;16.60;99.90
22418;DHT22;11376;50.932;4.442;2023-07-31T04:45:16;16.70;99.90
22418;DHT22;11376;50.932;4.442;2023-07-31T04:47:41;16.60;99.90
22418;DHT22;11376;50.932;4.442;2023-07-31T04:50:07;16.60;99.90
22418;DHT22;11376;50.932;4.442;2023-07-31T04:52:33;16.60;99.90
22418;DHT22;11376;50.932;4.442;2023-07-31T04:54:59;16.70;99.90
22418;DHT22;11376;50.932;4.442;2023-07-31T04:57:24;16.70;99.90
22418;DHT22;11376;50.932;4.442;2023-07-31T04:59:50;16.70;99.90
22418;DHT22;11376;50.932;4.442;2023-07-31T05:02:16;16.70;99.90
22418;DHT22;11376;50.932;4.442;2023-07-31T05:04:41;16.70;99.90
22418;DHT22;11376;50.932;4.442;2023-07-31T05:07:07;16.70;99.90
22418;DHT22;11376;50.932;4.442;2023-07-31T05:09:33;16.70;99.90
22418;DHT22;11376;50.932;4.442;2023-07-31T05:11:59;16.70;99.90
22418;DHT22;11376;50.932;4.442;2023-07-31T05:14:25;16.80;99.90
22418;DHT22;11376;50.932;4.442;2023-07-31T05:16:51;16.70;99.90
22418;DHT22;11376;50.932;4.442;2023-07-31T05:19:17;16.70;99.90
22418;DHT22;11376;50.932;4.442;2023-07-31T05:21:43;16.70;99.90
22418;DHT22;11376;50.932;4.442;2023-07-31T05:24:10;16.60;99.90
22418;DHT22;11376;50.932;4.442;2023-07-31T05:26:35;16.60;99.90
22418;DHT22;11376;50.932;4.442;2023-07-31T05:29:01;16.50;99.90
22418;DHT22;11376;50.932;4.442;2023-07-31T05:31:27;16.50;99.90
22418;DHT22;11376;50.932;4.442;2023-07-31T05:33:53;16.40;99.90
22418;DHT22;11376;50.932;4.442;2023-07-31T05:36:19;16.50;99.90
22418;DHT22;11376;50.932;4.442;2023-07-31T05:38:45;16.40;99.90
22418;DHT22;11376;50.932;4.442;2023-07-31T05:41:14;16.40;99.90
22418;DHT22;11376;50.932;4.442;2023-07-31T05:43:39;16.40;99.90
22418;DHT22;11376;50.932;4.442;2023-07-31T05:46:06;16.40;99.90
22418;DHT22;11376;50.932;4.442;2023-07-31T05:48:32;16.50;99.90
22418;DHT22;11376;50.932;4.442;2023-07-31T05:50:59;16.50;99.90
22418;DHT22;11376;50.932;4.442;2023-07-31T05:53:25;16.50;99.90
22418;DHT22;11376;50.932;4.442;2023-07-31T05:55:51;16.50;99.90
22418;DHT22;11376;50.932;4.442;2023-07-31T05:58:17;16.50;99.90
22418;DHT22;11376;50.932;4.442;2023-07-31T06:00:42;16.50;99.90
22418;DHT22;11376;50.932;4.442;2023-07-31T06:03:08;16.50;99.90
22418;DHT22;11376;50.932;4.442;2023-07-31T06:05:34;16.50;99.90
22418;DHT22;11376;50.932;4.442;2023-07-31T06:08:00;16.60;99.90
22418;DHT22;11376;50.932;4.442;2023-07-31T06:10:26;16.60;99.90
22418;DHT22;11376;50.932;4.442;2023-07-31T06:12:52;16.60;99.90
22418;DHT22;11376;50.932;4.442;2023-07-31T06:15:18;16.60;99.90
22418;DHT22;11376;50.932;4.442;2023-07-31T06:17:44;16.60;99.90
22418;DHT22;11376;50.932;4.442;2023-07-31T06:20:10;16.70;99.90
22418;DHT22;11376;50.932;4.442;2023-07-31T06:22:36;16.70;99.90
22418;DHT22;11376;50.932;4.442;2023-07-31T06:25:02;16.70;99.90
22418;DHT22;11376;50.932;4.442;2023-07-31T06:27:28;16.70;99.90
22418;DHT22;11376;50.932;4.442;2023-07-31T06:29:53;16.70;99.90
22418;DHT22;11376;50.932;4.442;2023-07-31T06:32:19;16.70;99.90
22418;DHT22;11376;50.932;4.442;2023-07-31T06:34:45;16.80;99.90
22418;DHT22;11376;50.932;4.442;2023-07-31T06:37:11;16.80;99.90
22418;DHT22;11376;50.932;4.442;2023-07-31T06:39:36;16.80;99.90
22418;DHT22;11376;50.932;4.442;2023-07-31T06:42:03;16.90;99.90
22418;DHT22;11376;50.932;4.442;2023-07-31T06:44:28;17.00;99.90
22418;DHT22;11376;50.932;4.442;2023-07-31T06:46:54;17.00;99.90
22418;DHT22;11376;50.932;4.442;2023-07-31T06:49:20;17.00;99.90
22418;DHT22;11376;50.932;4.442;2023-07-31T06:51:45;17.10;99.90
22418;DHT22;11376;50.932;4.442;2023-07-31T06:54:11;17.10;99.90
22418;DHT22;11376;50.932;4.442;2023-07-31T06:56:36;17.10;99.90
22418;DHT22;11376;50.932;4.442;2023-07-31T06:59:03;17.20;99.90
22418;DHT22;11376;50.932;4.442;2023-07-31T07:01:29;17.30;99.90
22418;DHT22;11376;50.932;4.442;2023-07-31T07:03:55;17.40;99.90
22418;DHT22;11376;50.932;4.442;2023-07-31T07:06:22;17.50;99.90
22418;DHT22;11376;50.932;4.442;2023-07-31T07:08:48;17.50;99.90
22418;DHT22;11376;50.932;4.442;2023-07-31T07:11:13;17.60;99.90
22418;DHT22;11376;50.932;4.442;2023-07-31T07:13:39;17.60;99.90
22418;DHT22;11376;50.932;4.442;2023-07-31T07:16:05;17.70;99.90
22418;DHT22;11376;50.932;4.442;2023-07-31T07:18:30;17.80;99.90
22418;DHT22;11376;50.932;4.442;2023-07-31T07:20:56;17.80;99.90
22418;DHT22;11376;50.932;4.442;2023-07-31T07:23:24;17.90;99.90
22418;DHT22;11376;50.932;4.442;2023-07-31T07:25:49;18.00;99.90
22418;DHT22;11376;50.932;4.442;2023-07-31T07:28:16;18.10;99.90
22418;DHT22;11376;50.932;4.442;2023-07-31T07:30:42;18.00;99.90
22418;DHT22;11376;50.932;4.442;2023-07-31T07:33:07;18.00;99.90
22418;DHT22;11376;50.932;4.442;2023-07-31T07:35:34;18.00;99.90
22418;DHT22;11376;50.932;4.442;2023-07-31T07:38:01;17.90;99.90
22418;DHT22;11376;50.932;4.442;2023-07-31T07:40:26;17.90;99.90
22418;DHT22;11376;50.932;4.442;2023-07-31T07:42:52;17.90;99.90
22418;DHT22;11376;50.932;4.442;2023-07-31T07:45:18;17.90;99.90
22418;DHT22;11376;50.932;4.442;2023-07-31T07:47:43;17.90;99.90
22418;DHT22;11376;50.932;4.442;2023-07-31T07:50:09;17.90;99.90
22418;DHT22;11376;50.932;4.442;2023-07-31T07:52:35;17.80;99.90
22418;DHT22;11376;50.932;4.442;2023-07-31T07:55:01;17.80;99.90
22418;DHT22;11376;50.932;4.442;2023-07-31T07:57:27;17.80;99.90
22418;DHT22;11376;50.932;4.442;2023-07-31T07:59:52;17.90;99.90
22418;DHT22;11376;50.932;4.442;2023-07-31T08:02:18;17.90;99.90
22418;DHT22;11376;50.932;4.442;2023-07-31T08:04:44;18.00;99.90
22418;DHT22;11376;50.932;4.442;2023-07-31T08:07:13;18.00;99.90
22418;DHT22;11376;50.932;4.442;2023-07-31T08:09:39;18.10;99.90
22418;DHT22;11376;50.932;4.442;2023-07-31T08:12:05;18.10;99.90
22418;DHT22;11376;50.932;4.442;2023-07-31T08:14:31;18.20;99.90
22418;DHT22;11376;50.932;4.442;2023-07-31T08:16:56;18.30;99.90
22418;DHT22;11376;50.932;4.442;2023-07-31T08:19:22;18.40;99.90
22418;DHT22;11376;50.932;4.442;2023-07-31T08:21:48;18.40;99.90
22418;DHT22;11376;50.932;4.442;2023-07-31T08:24:14;18.40;99.90
22418;DHT22;11376;50.932;4.442;2023-07-31T08:26:39;18.30;99.90
22418;DHT22;11376;50.932;4.442;2023-07-31T08:29:05;18.10;99.90
22418;DHT22;11376;50.932;4.442;2023-07-31T08:31:31;18.00;99.90
22418;DHT22;11376;50.932;4.442;2023-07-31T08:33:57;17.90;99.90
22418;DHT22;11376;50.932;4.442;2023-07-31T08:36:22;17.90;99.90
22418;DHT22;11376;50.932;4.442;2023-07-31T08:38:48;17.80;99.90
22418;DHT22;11376;50.932;4.442;2023-07-31T08:41:15;17.90;99.90
22418;DHT22;11376;50.932;4.442;2023-07-31T08:43:44;17.90;99.90
22418;DHT22;11376;50.932;4.442;2023-07-31T08:46:10;17.90;99.90
22418;DHT22;11376;50.932;4.442;2023-07-31T08:48:37;17.90;99.90
22418;DHT22;11376;50.932;4.442;2023-07-31T08:51:04;17.90;99.90
22418;DHT22;11376;50.932;4.442;2023-07-31T08:53:29;18.00;99.90
22418;DHT22;11376;50.932;4.442;2023-07-31T08:55:56;18.00;99.90
22418;DHT22;11376;50.932;4.442;2023-07-31T08:58:24;18.10;99.90
22418;DHT22;11376;50.932;4.442;2023-07-31T09:00:51;18.10;99.90
22418;DHT22;11376;50.932;4.442;2023-07-31T09:03:18;17.90;99.90
22418;DHT22;11376;50.932;4.442;2023-07-31T09:05:47;17.90;99.90
22418;DHT22;11376;50.932;4.442;2023-07-31T09:08:15;17.90;99.90
22418;DHT22;11376;50.932;4.442;2023-07-31T09:10:44;18.10;99.90
22418;DHT22;11376;50.932;4.442;2023-07-31T09:13:12;18.10;99.90
22418;DHT22;11376;50.932;4.442;2023-07-31T09:15:37;18.10;99.90
22418;DHT22;11376;50.932;4.442;2023-07-31T09:18:06;18.10;99.90
22418;DHT22;11376;50.932;4.442;2023-07-31T09:20:32;18.20;99.90
22418;DHT22;11376;50.932;4.442;2023-07-31T09:25:31;18.20;99.90
22418;DHT22;11376;50.932;4.442;2023-07-31T09:28:05;18.20;99.90
22418;DHT22;11376;50.932;4.442;2023-07-31T09:30:32;18.30;99.90
22418;DHT22;11376;50.932;4.442;2023-07-31T09:33:09;18.80;99.90
22418;DHT22;11376;50.932;4.442;2023-07-31T09:35:35;19.00;99.90
22418;DHT22;11376;50.932;4.442;2023-07-31T09:38:11;19.10;99.90
22418;DHT22;11376;50.932;4.442;2023-07-31T09:40:39;19.20;99.90
22418;DHT22;11376;50.932;4.442;2023-07-31T09:43:07;19.00;99.90
22418;DHT22;11376;50.932;4.442;2023-07-31T09:45:40;19.00;99.90
22418;DHT22;11376;50.932;4.442;2023-07-31T09:48:11;19.10;99.90
22418;DHT22;11376;50.932;4.442;2023-07-31T09:50:39;19.00;99.90
22418;DHT22;11376;50.932;4.442;2023-07-31T09:53:08;19.00;99.90
22418;DHT22;11376;50.932;4.442;2023-07-31T09:55:35;18.90;99.90
22418;DHT22;11376;50.932;4.442;2023-07-31T09:58:09;18.70;99.90
22418;DHT22;11376;50.932;4.442;2023-07-31T10:00:35;18.60;99.90
22418;DHT22;11376;50.932;4.442;2023-07-31T10:03:04;18.40;99.90
22418;DHT22;11376;50.932;4.442;2023-07-31T10:05:35;18.20;99.90
22418;DHT22;11376;50.932;4.442;2023-07-31T10:08:01;18.10;99.90
22418;DHT22;11376;50.932;4.442;2023-07-31T10:10:27;18.00;99.90
22418;DHT22;11376;50.932;4.442;2023-07-31T10:12:54;17.90;99.90
22418;DHT22;11376;50.932;4.442;2023-07-31T10:15:20;17.90;99.90
22418;DHT22;11376;50.932;4.442;2023-07-31T10:17:50;17.90;99.90
22418;DHT22;11376;50.932;4.442;2023-07-31T10:20:16;18.00;99.90
22418;DHT22;11376;50.932;4.442;2023-07-31T10:22:45;18.10;99.90
22418;DHT22;11376;50.932;4.442;2023-07-31T10:25:11;18.10;99.90
22418;DHT22;11376;50.932;4.442;2023-07-31T10:27:39;18.10;99.90
22418;DHT22;11376;50.932;4.442;2023-07-31T10:30:12;18.20;99.90
22418;DHT22;11376;50.932;4.442;2023-07-31T10:32:41;18.30;99.90
22418;DHT22;11376;50.932;4.442;2023-07-31T10:35:08;18.40;99.90
22418;DHT22;11376;50.932;4.442;2023-07-31T10:37:41;18.50;99.90
22418;DHT22;11376;50.932;4.442;2023-07-31T10:40:11;18.60;99.90
22418;DHT22;11376;50.932;4.442;2023-07-31T10:42:50;18.60;99.90
22418;DHT22;11376;50.932;4.442;2023-07-31T10:45:25;18.60;99.90
22418;DHT22;11376;50.932;4.442;2023-07-31T10:48:02;18.70;99.90
22418;DHT22;11376;50.932;4.442;2023-07-31T10:50:29;18.70;99.90
22418;DHT22;11376;50.932;4.442;2023-07-31T10:52:56;18.70;99.90
22418;DHT22;11376;50.932;4.442;2023-07-31T10:55:42;18.80;99.90
22418;DHT22;11376;50.932;4.442;2023-07-31T10:58:13;19.00;99.90
22418;DHT22;11376;50.932;4.442;2023-07-31T11:00:43;19.30;99.90
22418;DHT22;11376;50.932;4.442;2023-07-31T11:03:10;19.30;99.90
22418;DHT22;11376;50.932;4.442;2023-07-31T11:05:47;19.30;99.90
22418;DHT22;11376;50.932;4.442;2023-07-31T11:10:40;19.40;99.90
22418;DHT22;11376;50.932;4.442;2023-07-31T11:13:06;19.40;99.90
22418;DHT22;11376;50.932;4.442;2023-07-31T11:15:31;19.60;99.90
22418;DHT22;11376;50.932;4.442;2023-07-31T11:17:57;19.70;99.90
22418;DHT22;11376;50.932;4.442;2023-07-31T11:20:24;19.90;99.90
22418;DHT22;11376;50.932;4.442;2023-07-31T11:22:50;19.90;99.90
22418;DHT22;11376;50.932;4.442;2023-07-31T11:25:16;20.00;99.90
22418;DHT22;11376;50.932;4.442;2023-07-31T11:27:43;20.20;99.90
22418;DHT22;11376;50.932;4.442;2023-07-31T11:30:09;20.30;99.90
22418;DHT22;11376;50.932;4.442;2023-07-31T11:32:38;20.40;99.90
22418;DHT22;11376;50.932;4.442;2023-07-31T11:35:05;20.20;99.90
22418;DHT22;11376;50.932;4.442;2023-07-31T11:37:43;20.40;99.90
22418;DHT22;11376;50.932;4.442;2023-07-31T11:40:10;20.40;99.90
22418;DHT22;11376;50.932;4.442;2023-07-31T11:42:36;20.70;99.90
22418;DHT22;11376;50.932;4.442;2023-07-31T11:45:05;20.10;99.90
22418;DHT22;11376;50.932;4.442;2023-07-31T11:47:36;19.90;99.90
22418;DHT22;11376;50.932;4.442;2023-07-31T11:50:07;19.80;99.90
22418;DHT22;11376;50.932;4.442;2023-07-31T11:52:42;19.80;99.90
22418;DHT22;11376;50.932;4.442;2023-07-31T11:55:09;19.80;99.90
22418;DHT22;11376;50.932;4.442;2023-07-31T11:57:41;19.80;99.90
22418;DHT22;11376;50.932;4.442;2023-07-31T12:00:09;19.80;99.90
22418;DHT22;11376;50.932;4.442;2023-07-31T12:02:37;19.70;99.90
22418;DHT22;11376;50.932;4.442;2023-07-31T12:05:06;19.80;99.90
22418;DHT22;11376;50.932;4.442;2023-07-31T12:10:22;20.10;99.90
22418;DHT22;11376;50.932;4.442;2023-07-31T12:12:59;20.30;99.90
22418;DHT22;11376;50.932;4.442;2023-07-31T12:15:40;20.20;99.90
22418;DHT22;11376;50.932;4.442;2023-07-31T12:18:11;20.10;99.90
22418;DHT22;11376;50.932;4.442;2023-07-31T12:20:47;20.00;99.90
22418;DHT22;11376;50.932;4.442;2023-07-31T12:23:25;20.10;99.90
22418;DHT22;11376;50.932;4.442;2023-07-31T12:26:01;20.10;99.90
22418;DHT22;11376;50.932;4.442;2023-07-31T12:28:27;20.00;99.90
22418;DHT22;11376;50.932;4.442;2023-07-31T12:30:57;20.10;99.90
22418;DHT22;11376;50.932;4.442;2023-07-31T12:33:23;20.30;99.90
22418;DHT22;11376;50.932;4.442;2023-07-31T12:35:49;20.60;99.90
22418;DHT22;11376;50.932;4.442;2023-07-31T12:38:14;20.90;99.90
22418;DHT22;11376;50.932;4.442;2023-07-31T12:40:41;20.90;99.90
22418;DHT22;11376;50.932;4.442;2023-07-31T12:43:07;20.70;99.90
22418;DHT22;11376;50.932;4.442;2023-07-31T12:45:34;20.80;99.90
22418;DHT22;11376;50.932;4.442;2023-07-31T12:48:00;20.90;99.90
22418;DHT22;11376;50.932;4.442;2023-07-31T12:50:26;20.90;99.90
22418;DHT22;11376;50.932;4.442;2023-07-31T12:52:56;21.00;99.90
22418;DHT22;11376;50.932;4.442;2023-07-31T12:55:23;20.80;99.90
22418;DHT22;11376;50.932;4.442;2023-07-31T12:57:49;20.90;99.90
22418;DHT22;11376;50.932;4.442;2023-07-31T13:00:15;20.90;99.90
22418;DHT22;11376;50.932;4.442;2023-07-31T13:02:41;21.00;99.90
22418;DHT22;11376;50.932;4.442;2023-07-31T13:05:07;20.90;99.90
22418;DHT22;11376;50.932;4.442;2023-07-31T13:07:33;20.70;99.90
22418;DHT22;11376;50.932;4.442;2023-07-31T13:09:59;20.60;99.90
22418;DHT22;11376;50.932;4.442;2023-07-31T13:12:25;20.50;99.90
22418;DHT22;11376;50.932;4.442;2023-07-31T13:14:51;20.60;99.90
22418;DHT22;11376;50.932;4.442;2023-07-31T13:17:17;20.40;99.90
22418;DHT22;11376;50.932;4.442;2023-07-31T13:19:43;20.20;99.90
22418;DHT22;11376;50.932;4.442;2023-07-31T13:22:08;20.10;99.90
22418;DHT22;11376;50.932;4.442;2023-07-31T13:24:34;19.90;99.90
22418;DHT22;11376;50.932;4.442;2023-07-31T13:27:00;19.20;99.90
22418;DHT22;11376;50.932;4.442;2023-07-31T13:29:25;18.70;99.90
22418;DHT22;11376;50.932;4.442;2023-07-31T13:31:52;18.40;99.90
22418;DHT22;11376;50.932;4.442;2023-07-31T13:34:18;18.40;99.90
22418;DHT22;11376;50.932;4.442;2023-07-31T13:36:43;18.20;99.90
22418;DHT22;11376;50.932;4.442;2023-07-31T13:39:09;18.20;99.90
22418;DHT22;11376;50.932;4.442;2023-07-31T13:41:35;18.10;99.90
22418;DHT22;11376;50.932;4.442;2023-07-31T13:44:00;18.10;99.90
22418;DHT22;11376;50.932;4.442;2023-07-31T13:46:26;18.10;99.90
22418;DHT22;11376;50.932;4.442;2023-07-31T13:48:52;18.10;99.90
22418;DHT22;11376;50.932;4.442;2023-07-31T13:51:21;18.00;99.90
22418;DHT22;11376;50.932;4.442;2023-07-31T13:53:47;18.00;99.90
22418;DHT22;11376;50.932;4.442;2023-07-31T13:56:13;18.00;99.90
22418;DHT22;11376;50.932;4.442;2023-07-31T13:58:39;17.90;99.90
22418;DHT22;11376;50.932;4.442;2023-07-31T14:01:05;17.90;99.90
22418;DHT22;11376;50.932;4.442;2023-07-31T14:03:31;17.90;99.90
22418;DHT22;11376;50.932;4.442;2023-07-31T14:05:57;18.00;99.90
22418;DHT22;11376;50.932;4.442;2023-07-31T14:08:22;17.90;99.90
22418;DHT22;11376;50.932;4.442;2023-07-31T14:10:48;17.90;99.90
22418;DHT22;11376;50.932;4.442;2023-07-31T14:13:14;17.90;99.90
22418;DHT22;11376;50.932;4.442;2023-07-31T14:15:42;17.90;99.90
22418;DHT22;11376;50.932;4.442;2023-07-31T14:18:08;17.80;99.90
22418;DHT22;11376;50.932;4.442;2023-07-31T14:20:34;17.90;99.90
22418;DHT22;11376;50.932;4.442;2023-07-31T14:23:00;17.80;99.90
22418;DHT22;11376;50.932;4.442;2023-07-31T14:25:26;17.90;99.90
22418;DHT22;11376;50.932;4.442;2023-07-31T14:27:52;17.90;99.90
22418;DHT22;11376;50.932;4.442;2023-07-31T14:30:17;17.90;99.90
22418;DHT22;11376;50.932;4.442;2023-07-31T14:32:44;17.90;99.90
22418;DHT22;11376;50.932;4.442;2023-07-31T14:35:10;17.90;99.90
22418;DHT22;11376;50.932;4.442;2023-07-31T14:37:43;17.90;99.90
22418;DHT22;11376;50.932;4.442;2023-07-31T14:40:11;17.90;99.90
22418;DHT22;11376;50.932;4.442;2023-07-31T14:42:38;17.80;99.90
22418;DHT22;11376;50.932;4.442;2023-07-31T14:45:05;17.90;99.90
22418;DHT22;11376;50.932;4.442;2023-07-31T14:47:31;17.90;99.90
22418;DHT22;11376;50.932;4.442;2023-07-31T14:49:58;17.90;99.90
22418;DHT22;11376;50.932;4.442;2023-07-31T14:52:23;17.90;99.90
22418;DHT22;11376;50.932;4.442;2023-07-31T14:54:49;17.80;99.90
22418;DHT22;11376;50.932;4.442;2023-07-31T14:57:15;17.80;99.90
22418;DHT22;11376;50.932;4.442;2023-07-31T14:59:41;17.80;99.90
22418;DHT22;11376;50.932;4.442;2023-07-31T15:02:08;17.80;99.90
22418;DHT22;11376;50.932;4.442;2023-07-31T15:04:34;17.80;99.90
22418;DHT22;11376;50.932;4.442;2023-07-31T15:07:00;17.90;99.90
22418;DHT22;11376;50.932;4.442;2023-07-31T15:09:25;17.80;99.90
22418;DHT22;11376;50.932;4.442;2023-07-31T15:11:51;17.80;99.90
22418;DHT22;11376;50.932;4.442;2023-07-31T15:14:16;17.80;99.90
22418;DHT22;11376;50.932;4.442;2023-07-31T15:16:42;17.70;99.90
22418;DHT22;11376;50.932;4.442;2023-07-31T15:19:08;17.80;99.90
22418;DHT22;11376;50.932;4.442;2023-07-31T15:21:36;17.80;99.90
22418;DHT22;11376;50.932;4.442;2023-07-31T15:24:02;17.80;99.90
22418;DHT22;11376;50.932;4.442;2023-07-31T15:26:27;17.70;99.90
22418;DHT22;11376;50.932;4.442;2023-07-31T15:29:01;17.80;99.90
22418;DHT22;11376;50.932;4.442;2023-07-31T15:31:28;17.80;99.90
22418;DHT22;11376;50.932;4.442;2023-07-31T15:33:54;17.80;99.90
22418;DHT22;11376;50.932;4.442;2023-07-31T15:36:19;17.80;99.90
22418;DHT22;11376;50.932;4.442;2023-07-31T15:38:45;17.80;99.90
22418;DHT22;11376;50.932;4.442;2023-07-31T15:41:11;17.80;99.90